Wetterdaten: Woche 13.08.18 - 19.08.18 (KW33)
Datum Zeit Temp. Aussen Temp. o. S. +5cm Feuchte Auss Luftdruck Regen Sonnenschein Regendauer Solar Windben Empfang
13.08.2018 00:00 19,4 C 18,9 C 17,2 C 59 % 1006,7 hPa 0,0 l/m 0,00 h 0,00 h 0 W/m 4,3 km/h (1 Bft) 96,45 %
13.08.2018 01:00 19,2 C 18,3 C 17,5 C 59 % 1006,2 hPa 0,0 l/m 0,00 h 0,07 h 0 W/m 4,7 km/h (1 Bft) 96,80 %
13.08.2018 02:00 18,9 C 18,3 C 17,7 C 61 % 1005,4 hPa 0,0 l/m 0,00 h 0,00 h 0 W/m 6,7 km/h (2 Bft) 98,86 %
13.08.2018 03:00 18,8 C 17,8 C 17,3 C 62 % 1004,8 hPa 0,0 l/m 0,00 h 0,00 h 0 W/m 6,5 km/h (2 Bft) 97,29 %
13.08.2018 04:00 18,6 C 18,3 C 17,5 C 66 % 1004,2 hPa 0,0 l/m 0,00 h 0,00 h 0 W/m 7,5 km/h (2 Bft) 96,79 %
13.08.2018 05:00 18,9 C 18,4 C 18,0 C 66 % 1004,4 hPa 0,0 l/m 0,00 h 0,08 h 0 W/m 6,0 km/h (2 Bft) 97,87 %
13.08.2018 06:00 18,3 C 14,5 C 14,7 C 77 % 1005,1 hPa 0,4 l/m 0,00 h 1,02 h 8 W/m 1,9 km/h (1 Bft) 97,93 %
13.08.2018 07:00 17,2 C 15,0 C 14,9 C 87 % 1004,6 hPa 0,8 l/m 0,00 h 0,67 h 9 W/m 3,0 km/h (1 Bft) 98,79 %
13.08.2018 08:00 16,9 C 15,6 C 15,3 C 92 % 1004,0 hPa 0,4 l/m 0,00 h 0,33 h 87 W/m 6,4 km/h (2 Bft) 95,30 %
13.08.2018 09:00 17,2 C 16,6 C 15,8 C 94 % 1004,6 hPa 0,0 l/m 0,00 h 0,00 h 149 W/m 10,1 km/h (2 Bft) 97,13 %
13.08.2018 10:00 17,7 C 17,1 C 16,1 C 94 % 1005,0 hPa 0,6 l/m 0,00 h 0,13 h 149 W/m 10,5 km/h (2 Bft) 99,65 %
13.08.2018 11:00 18,5 C 18,2 C 17,0 C 93 % 1005,0 hPa 0,0 l/m 0,10 h 0,00 h 264 W/m 10,5 km/h (2 Bft) 96,08 %
13.08.2018 12:00 20,2 C 19,0 C 17,8 C 90 % 1004,5 hPa 4,4 l/m 0,15 h 0,47 h 199 W/m 8,1 km/h (2 Bft) 96,91 %
13.08.2018 13:00 19,9 C 18,6 C 17,8 C 93 % 1004,0 hPa 0,0 l/m 0,00 h 0,13 h 144 W/m 7,7 km/h (2 Bft) 97,15 %
13.08.2018 14:00 19,6 C 19,5 C 17,9 C 94 % 1004,0 hPa 0,0 l/m 0,30 h 0,50 h 353 W/m 9,2 km/h (2 Bft) 94,37 %
13.08.2018 15:00 20,6 C 19,8 C 18,0 C 86 % 1004,2 hPa 2,2 l/m 0,27 h 0,33 h 261 W/m 10,5 km/h (2 Bft) 96,54 %
13.08.2018 16:00 18,7 C 17,5 C 16,9 C 92 % 1004,5 hPa 0,4 l/m 0,03 h 0,30 h 201 W/m 6,2 km/h (2 Bft) 97,94 %
13.08.2018 17:00 18,8 C 17,8 C 17,2 C 94 % 1004,7 hPa 0,2 l/m 0,50 h 0,30 h 262 W/m 5,6 km/h (1 Bft) 98,21 %
13.08.2018 18:00 19,6 C 19,3 C 17,8 C 90 % 1004,9 hPa 0,0 l/m 0,70 h 0,00 h 222 W/m 7,0 km/h (2 Bft) 96,07 %
13.08.2018 19:00 19,8 C 18,8 C 18,1 C 87 % 1004,8 hPa 0,0 l/m 0,00 h 0,00 h 42 W/m 4,2 km/h (1 Bft) 98,51 %
13.08.2018 20:00 19,1 C 17,9 C 17,7 C 88 % 1005,3 hPa 0,0 l/m 0,00 h 0,00 h 10 W/m 3,8 km/h (1 Bft) 98,22 %
13.08.2018 21:00 18,3 C 17,0 C 17,0 C 90 % 1005,8 hPa 0,0 l/m 0,00 h 0,00 h 0 W/m 2,2 km/h (1 Bft) 96,16 %
13.08.2018 22:00 17,6 C 16,4 C 16,6 C 91 % 1006,2 hPa 0,0 l/m 0,00 h 0,00 h 0 W/m 2,2 km/h (1 Bft) 97,62 %
13.08.2018 23:00 17,0 C 15,8 C 16,1 C 92 % 1006,5 hPa 0,0 l/m 0,00 h 0,00 h 0 W/m 2,3 km/h (1 Bft) 97,94 %
14.08.2018 00:00 16,8 C 16,1 C 16,1 C 94 % 1007,0 hPa 0,0 l/m 0,00 h 0,00 h 0 W/m 3,1 km/h (1 Bft) 97,62 %
14.08.2018 01:00 16,9 C 16,1 C 16,1 C 94 % 1007,5 hPa 0,0 l/m 0,00 h 0,00 h 0 W/m 3,5 km/h (1 Bft) 97,38 %
14.08.2018 02:00 16,8 C 16,3 C 16,1 C 95 % 1007,8 hPa 0,0 l/m 0,00 h 0,00 h 0 W/m 3,9 km/h (1 Bft) 96,86 %
14.08.2018 03:00 17,0 C 16,7 C 16,1 C 95 % 1007,9 hPa 0,0 l/m 0,00 h 0,00 h 0 W/m 4,7 km/h (1 Bft) 97,60 %
14.08.2018 04:00 17,1 C 16,7 C 16,1 C 94 % 1008,1 hPa 0,0 l/m 0,00 h 0,00 h 0 W/m 4,9 km/h (1 Bft) 98,74 %
14.08.2018 05:00 17,1 C 16,7 C 16,1 C 93 % 1008,3 hPa 0,0 l/m 0,00 h 0,00 h 0 W/m 5,8 km/h (2 Bft) 95,37 %
14.08.2018 06:00 17,0 C 16,6 C 16,1 C 93 % 1008,8 hPa 0,0 l/m 0,00 h 0,03 h 7 W/m 6,3 km/h (2 Bft) 98,01 %
14.08.2018 07:00 16,9 C 15,7 C 15,2 C 94 % 1009,5 hPa 0,6 l/m 0,00 h 0,63 h 22 W/m 4,9 km/h (1 Bft) 99,43 %
14.08.2018 08:00 16,9 C 16,2 C 15,6 C 96 % 1010,0 hPa 0,2 l/m 0,00 h 0,00 h 79 W/m 4,2 km/h (1 Bft) 94,88 %
14.08.2018 09:00 17,3 C 16,8 C 16,2 C 97 % 1010,8 hPa 0,0 l/m 0,00 h 0,00 h 107 W/m 5,0 km/h (1 Bft) 98,15 %
14.08.2018 10:00 18,2 C 18,1 C 16,9 C 95 % 1011,3 hPa 0,0 l/m 0,17 h 0,00 h 266 W/m 9,2 km/h (2 Bft) 99,79 %
14.08.2018 11:00 19,7 C 21,5 C 18,3 C 85 % 1011,6 hPa 0,0 l/m 0,27 h 0,00 h 313 W/m 9,2 km/h (2 Bft) 95,47 %
14.08.2018 12:00 22,1 C 26,6 C 20,2 C 74 % 1012,0 hPa 0,0 l/m 0,33 h 0,00 h 421 W/m 12,5 km/h (3 Bft) 97,86 %
14.08.2018 13:00 23,1 C 24,3 C 20,9 C 69 % 1012,3 hPa 0,0 l/m 0,27 h 0,00 h 346 W/m 12,1 km/h (2 Bft) 98,52 %
14.08.2018 14:00 23,7 C 24,4 C 22,0 C 67 % 1012,4 hPa 0,0 l/m 0,63 h 0,00 h 619 W/m 12,9 km/h (3 Bft) 97,87 %
14.08.2018 15:00 24,6 C 25,0 C 22,7 C 64 % 1012,7 hPa 0,0 l/m 0,70 h 0,00 h 647 W/m 13,5 km/h (3 Bft) 96,27 %
14.08.2018 16:00 24,9 C 25,5 C 22,7 C 61 % 1013,0 hPa 0,0 l/m 0,37 h 0,00 h 333 W/m 12,3 km/h (3 Bft) 97,81 %
14.08.2018 17:00 24,4 C 23,9 C 22,2 C 65 % 1013,3 hPa 0,0 l/m 0,23 h 0,00 h 200 W/m 8,5 km/h (2 Bft) 99,15 %
14.08.2018 18:00 23,0 C 21,9 C 20,9 C 73 % 1013,9 hPa 0,0 l/m 0,08 h 0,00 h 88 W/m 11,3 km/h (2 Bft) 95,08 %
14.08.2018 19:00 21,7 C 21,0 C 20,1 C 76 % 1014,3 hPa 0,0 l/m 0,23 h 0,00 h 81 W/m 9,2 km/h (2 Bft) 98,50 %
14.08.2018 20:00 21,2 C 20,1 C 19,7 C 79 % 1014,7 hPa 0,0 l/m 0,00 h 0,13 h 12 W/m 5,3 km/h (1 Bft) 99,67 %
14.08.2018 21:00 20,6 C 19,3 C 18,9 C 80 % 1015,3 hPa 0,0 l/m 0,00 h 0,00 h 0 W/m 6,0 km/h (2 Bft) 93,91 %
14.08.2018 22:00 19,9 C 18,7 C 18,5 C 79 % 1015,7 hPa 0,0 l/m 0,00 h 0,00 h 0 W/m 5,1 km/h (1 Bft) 98,65 %
14.08.2018 23:00 19,0 C 17,9 C 17,7 C 73 % 1015,9 hPa 0,0 l/m 0,00 h 0,00 h 0 W/m 3,8 km/h (1 Bft) 99,57 %
15.08.2018 00:00 18,1 C 16,4 C 16,4 C 77 % 1016,4 hPa 0,0 l/m 0,00 h 0,00 h 0 W/m 1,2 km/h (1 Bft) 95,43 %
15.08.2018 01:00 17,4 C 16,7 C 16,6 C 80 % 1016,4 hPa 0,0 l/m 0,00 h 0,00 h 0 W/m 2,4 km/h (1 Bft) 97,47 %
15.08.2018 02:00 17,5 C 16,8 C 16,7 C 81 % 1016,3 hPa 0,0 l/m 0,00 h 0,00 h 0 W/m 3,8 km/h (1 Bft) 99,07 %
15.08.2018 03:00 17,6 C 17,2 C 16,8 C 82 % 1016,1 hPa 0,0 l/m 0,00 h 0,00 h 0 W/m 3,4 km/h (1 Bft) 95,79 %
15.08.2018 04:00 17,8 C 17,1 C 16,7 C 83 % 1016,1 hPa 0,0 l/m 0,00 h 0,00 h 0 W/m 2,1 km/h (1 Bft) 98,86 %
15.08.2018 05:00 17,6 C 16,7 C 16,6 C 85 % 1016,0 hPa 0,0 l/m 0,00 h 0,00 h 0 W/m 1,2 km/h (1 Bft) 97,16 %
15.08.2018 06:00 17,2 C 16,6 C 16,5 C 87 % 1016,2 hPa 0,0 l/m 0,00 h 0,00 h 11 W/m 2,8 km/h (1 Bft) 96,50 %
15.08.2018 07:00 16,9 C 16,4 C 16,1 C 88 % 1016,6 hPa 0,0 l/m 0,00 h 0,00 h 52 W/m 4,1 km/h (1 Bft) 99,64 %
15.08.2018 08:00 17,3 C 17,4 C 16,7 C 88 % 1016,8 hPa 0,0 l/m 0,00 h 0,00 h 101 W/m 5,7 km/h (1 Bft) 97,12 %
15.08.2018 09:00 17,8 C 17,6 C 16,9 C 88 % 1017,2 hPa 0,0 l/m 0,00 h 0,00 h 114 W/m 4,7 km/h (1 Bft) 95,89 %
15.08.2018 10:00 18,6 C 19,1 C 17,9 C 88 % 1017,5 hPa 0,0 l/m 0,00 h 0,00 h 205 W/m 5,8 km/h (2 Bft) 99,65 %
15.08.2018 11:00 19,5 C 20,3 C 18,7 C 86 % 1017,7 hPa 0,0 l/m 0,00 h 0,00 h 243 W/m 5,1 km/h (1 Bft) 96,91 %
15.08.2018 12:00 20,7 C 21,8 C 19,8 C 84 % 1017,6 hPa 0,0 l/m 0,00 h 0,00 h 339 W/m 5,9 km/h (2 Bft) 96,30 %
15.08.2018 13:00 21,8 C 23,1 C 20,8 C 81 % 1017,6 hPa 0,0 l/m 0,80 h 0,00 h 405 W/m 6,4 km/h (2 Bft) 98,01 %
15.08.2018 14:00 22,5 C 23,5 C 21,4 C 79 % 1017,5 hPa 0,0 l/m 0,80 h 0,00 h 441 W/m 7,9 km/h (2 Bft) 98,49 %
15.08.2018 15:00 23,7 C 24,7 C 22,5 C 74 % 1017,2 hPa 0,0 l/m 0,97 h 0,00 h 655 W/m 7,1 km/h (2 Bft) 96,82 %
15.08.2018 16:00 24,5 C 26,0 C 23,1 C 68 % 1016,9 hPa 0,0 l/m 0,67 h 0,00 h 490 W/m 7,5 km/h (2 Bft) 96,70 %
15.08.2018 17:00 24,5 C 23,9 C 22,6 C 68 % 1016,8 hPa 0,0 l/m 0,00 h 0,00 h 196 W/m 6,9 km/h (2 Bft) 99,64 %
15.08.2018 18:00 23,5 C 22,7 C 21,8 C 71 % 1016,7 hPa 0,0 l/m 0,00 h 0,00 h 110 W/m 5,1 km/h (1 Bft) 96,44 %
15.08.2018 19:00 22,8 C 22,1 C 21,2 C 74 % 1016,5 hPa 0,0 l/m 0,00 h 0,00 h 67 W/m 3,6 km/h (1 Bft) 96,51 %
15.08.2018 20:00 22,3 C 20,9 C 20,4 C 75 % 1016,4 hPa 0,0 l/m 0,10 h 0,00 h 24 W/m 1,9 km/h (1 Bft) 99,72 %
15.08.2018 21:00 21,0 C 19,0 C 18,7 C 80 % 1016,7 hPa 0,0 l/m 0,00 h 0,00 h 6 W/m 0,9 km/h (0 Bft) 95,86 %
15.08.2018 22:00 19,5 C 17,5 C 17,4 C 84 % 1016,7 hPa 0,0 l/m 0,00 h 0,00 h 0 W/m 0,0 km/h (0 Bft) 96,88 %
15.08.2018 23:00 18,2 C 16,5 C 16,5 C 88 % 1016,6 hPa 0,0 l/m 0,00 h 0,00 h 0 W/m 0,1 km/h (0 Bft) 99,65 %
16.08.2018 00:00 17,4 C 15,8 C 15,9 C 90 % 1016,6 hPa 0,0 l/m 0,00 h 0,00 h 0 W/m 0,0 km/h (0 Bft) 96,18 %
16.08.2018 01:00 16,6 C 15,5 C 15,6 C 91 % 1016,5 hPa 0,0 l/m 0,00 h 0,00 h 0 W/m 0,2 km/h (0 Bft) 97,30 %
16.08.2018 02:00 16,5 C 16,0 C 15,9 C 93 % 1016,3 hPa 0,0 l/m 0,00 h 0,00 h 0 W/m 1,0 km/h (0 Bft) 97,80 %
16.08.2018 03:00 16,4 C 15,5 C 15,3 C 93 % 1016,1 hPa 0,0 l/m 0,00 h 0,00 h 0 W/m 1,5 km/h (1 Bft) 96,30 %
16.08.2018 04:00 15,9 C 14,9 C 15,0 C 93 % 1015,8 hPa 0,0 l/m 0,00 h 0,00 h 0 W/m 3,4 km/h (1 Bft) 99,19 %
16.08.2018 05:00 15,4 C 14,4 C 14,6 C 93 % 1015,4 hPa 0,0 l/m 0,00 h 0,00 h 0 W/m 3,3 km/h (1 Bft) 97,79 %
16.08.2018 06:00 15,0 C 14,2 C 14,1 C 93 % 1015,4 hPa 0,0 l/m 0,00 h 0,00 h 10 W/m 0,9 km/h (0 Bft) 95,41 %
16.08.2018 07:00 15,1 C 15,2 C 14,8 C 94 % 1015,5 hPa 0,0 l/m 0,00 h 0,00 h 41 W/m 0,5 km/h (0 Bft) 99,01 %
16.08.2018 08:00 16,0 C 17,2 C 16,2 C 95 % 1015,2 hPa 0,0 l/m 0,00 h 0,00 h 100 W/m 3,6 km/h (1 Bft) 98,08 %
16.08.2018 09:00 17,8 C 20,8 C 17,8 C 92 % 1015,0 hPa 0,0 l/m 0,40 h 0,00 h 253 W/m 4,5 km/h (1 Bft) 95,65 %
16.08.2018 10:00 20,6 C 23,8 C 19,5 C 81 % 1014,9 hPa 0,0 l/m 0,77 h 0,00 h 424 W/m 5,1 km/h (1 Bft) 99,57 %
16.08.2018 11:00 23,4 C 29,4 C 21,1 C 71 % 1014,4 hPa 0,0 l/m 0,93 h 0,00 h 624 W/m 6,9 km/h (2 Bft) 97,44 %
16.08.2018 12:00 25,5 C 31,3 C 22,1 C 64 % 1014,0 hPa 0,0 l/m 0,50 h 0,00 h 420 W/m 7,5 km/h (2 Bft) 95,17 %
16.08.2018 13:00 25,9 C 27,3 C 23,2 C 62 % 1013,6 hPa 0,0 l/m 0,70 h 0,00 h 562 W/m 6,9 km/h (2 Bft) 99,14 %
16.08.2018 14:00 25,9 C 26,4 C 24,1 C 62 % 1013,1 hPa 0,0 l/m 1,00 h 0,00 h 685 W/m 7,7 km/h (2 Bft) 97,89 %
16.08.2018 15:00 26,6 C 27,1 C 24,6 C 60 % 1012,6 hPa 0,0 l/m 1,00 h 0,00 h 675 W/m 7,0 km/h (2 Bft) 96,22 %
16.08.2018 16:00 27,2 C 29,1 C 25,0 C 58 % 1012,2 hPa 0,0 l/m 1,00 h 0,00 h 587 W/m 7,3 km/h (2 Bft) 97,24 %
16.08.2018 17:00 27,3 C 27,7 C 25,4 C 57 % 1011,9 hPa 0,0 l/m 1,00 h 0,00 h 469 W/m 7,6 km/h (2 Bft) 98,72 %
16.08.2018 18:00 27,2 C 26,9 C 25,0 C 56 % 1011,6 hPa 0,0 l/m 0,73 h 0,00 h 251 W/m 5,9 km/h (2 Bft) 98,15 %
16.08.2018 19:00 26,4 C 25,1 C 23,9 C 59 % 1011,4 hPa 0,0 l/m 0,00 h 0,00 h 61 W/m 6,2 km/h (2 Bft) 94,96 %
16.08.2018 20:00 24,8 C 22,9 C 22,5 C 64 % 1011,4 hPa 0,0 l/m 0,00 h 0,00 h 20 W/m 3,5 km/h (1 Bft) 99,64 %
16.08.2018 21:00 23,3 C 21,4 C 21,1 C 68 % 1011,7 hPa 0,0 l/m 0,00 h 0,00 h 0 W/m 2,2 km/h (1 Bft) 99,07 %
16.08.2018 22:00 22,2 C 20,8 C 20,6 C 72 % 1011,9 hPa 0,0 l/m 0,00 h 0,00 h 0 W/m 5,0 km/h (1 Bft) 95,17 %
16.08.2018 23:00 21,4 C 19,5 C 19,5 C 75 % 1012,0 hPa 0,0 l/m 0,00 h 0,00 h 0 W/m 2,8 km/h (1 Bft) 98,93 %
17.08.2018 00:00 20,2 C 18,3 C 18,3 C 79 % 1012,1 hPa 0,0 l/m 0,00 h 0,00 h 0 W/m 0,9 km/h (0 Bft) 97,76 %
17.08.2018 01:00 19,1 C 17,6 C 17,8 C 82 % 1011,9 hPa 0,0 l/m 0,00 h 0,00 h 0 W/m 1,4 km/h (1 Bft) 97,51 %
17.08.2018 02:00 18,6 C 17,7 C 17,9 C 84 % 1011,8 hPa 0,0 l/m 0,00 h 0,00 h 0 W/m 3,0 km/h (1 Bft) 97,72 %
17.08.2018 03:00 18,4 C 17,3 C 17,3 C 87 % 1012,8 hPa 0,0 l/m 0,00 h 0,00 h 0 W/m 13,3 km/h (3 Bft) 96,38 %
17.08.2018 04:00 17,8 C 17,2 C 17,1 C 88 % 1013,3 hPa 0,0 l/m 0,00 h 0,00 h 0 W/m 13,1 km/h (3 Bft) 98,37 %
17.08.2018 05:00 18,0 C 17,4 C 17,2 C 86 % 1013,2 hPa 0,0 l/m 0,00 h 0,28 h 0 W/m 9,3 km/h (2 Bft) 99,40 %
17.08.2018 06:00 17,8 C 16,4 C 16,2 C 88 % 1014,2 hPa 4,0 l/m 0,00 h 0,57 h 5 W/m 8,1 km/h (2 Bft) 94,46 %
17.08.2018 07:00 16,9 C 15,2 C 15,0 C 93 % 1014,5 hPa 3,2 l/m 0,00 h 0,73 h 8 W/m 2,6 km/h (1 Bft) 99,07 %
17.08.2018 08:00 16,5 C 15,6 C 15,3 C 95 % 1014,7 hPa 4,4 l/m 0,00 h 0,97 h 28 W/m 0,8 km/h (0 Bft) 98,91 %
17.08.2018 09:00 16,7 C 16,1 C 15,5 C 96 % 1015,1 hPa 0,0 l/m 0,00 h 0,27 h 105 W/m 0,2 km/h (0 Bft) 94,31 %
17.08.2018 10:00 17,0 C 16,4 C 15,7 C 97 % 1015,7 hPa 0,0 l/m 0,00 h 0,00 h 115 W/m 2,2 km/h (1 Bft) 98,56 %
17.08.2018 11:00 17,2 C 16,8 C 16,1 C 97 % 1016,3 hPa 0,0 l/m 0,00 h 0,03 h 143 W/m 3,8 km/h (1 Bft) 98,56 %
17.08.2018 12:00 17,3 C 17,8 C 16,1 C 97 % 1016,5 hPa 0,0 l/m 0,00 h 0,00 h 204 W/m 9,5 km/h (2 Bft) 96,15 %
17.08.2018 13:00 17,7 C 20,3 C 17,7 C 97 % 1016,8 hPa 0,0 l/m 0,67 h 0,00 h 448 W/m 10,0 km/h (2 Bft) 98,22 %
17.08.2018 14:00 19,4 C 21,9 C 18,9 C 87 % 1017,0 hPa 0,0 l/m 0,83 h 0,00 h 516 W/m 9,0 km/h (2 Bft) 97,87 %
17.08.2018 15:00 21,0 C 22,4 C 19,6 C 75 % 1016,9 hPa 0,2 l/m 0,77 h 0,00 h 610 W/m 10,4 km/h (2 Bft) 97,22 %
17.08.2018 16:00 22,4 C 24,4 C 20,5 C 65 % 1016,7 hPa 0,0 l/m 0,87 h 0,00 h 625 W/m 10,5 km/h (2 Bft) 97,51 %
17.08.2018 17:00 23,1 C 24,2 C 21,0 C 61 % 1016,6 hPa 0,0 l/m 0,93 h 0,00 h 552 W/m 10,0 km/h (2 Bft) 98,72 %
17.08.2018 18:00 23,1 C 22,9 C 21,0 C 57 % 1016,7 hPa 0,0 l/m 0,63 h 0,00 h 277 W/m 9,4 km/h (2 Bft) 96,56 %
17.08.2018 19:00 22,5 C 21,4 C 20,1 C 59 % 1016,8 hPa 0,0 l/m 0,00 h 0,00 h 60 W/m 5,0 km/h (1 Bft) 97,22 %
17.08.2018 20:00 21,1 C 19,3 C 18,3 C 66 % 1017,1 hPa 0,0 l/m 0,00 h 0,00 h 19 W/m 3,0 km/h (1 Bft) 99,50 %
17.08.2018 21:00 19,4 C 17,3 C 16,8 C 72 % 1017,8 hPa 0,0 l/m 0,00 h 0,00 h 0 W/m 1,9 km/h (1 Bft) 96,66 %
17.08.2018 22:00 18,3 C 16,7 C 16,7 C 77 % 1018,3 hPa 0,0 l/m 0,00 h 0,00 h 0 W/m 3,3 km/h (1 Bft) 96,30 %
17.08.2018 23:00 17,3 C 15,8 C 16,1 C 81 % 1018,7 hPa 0,0 l/m 0,00 h 0,00 h 0 W/m 3,3 km/h (1 Bft) 98,15 %
18.08.2018 00:00 16,3 C 14,3 C 15,0 C 84 % 1018,9 hPa 0,0 l/m 0,00 h 0,00 h 0 W/m 1,3 km/h (1 Bft) 98,30 %
18.08.2018 01:00 15,3 C 13,8 C 14,1 C 86 % 1019,1 hPa 0,0 l/m 0,00 h 0,00 h 0 W/m 1,1 km/h (0 Bft) 97,94 %
18.08.2018 02:00 14,4 C 13,2 C 13,3 C 86 % 1019,2 hPa 0,0 l/m 0,00 h 0,00 h 0 W/m 0,2 km/h (0 Bft) 96,51 %
18.08.2018 03:00 13,9 C 12,8 C 12,9 C 88 % 1019,4 hPa 0,0 l/m 0,00 h 0,00 h 0 W/m 0,1 km/h (0 Bft) 98,08 %
18.08.2018 04:00 13,5 C 12,6 C 12,5 C 88 % 1019,5 hPa 0,0 l/m 0,00 h 0,00 h 0 W/m 0,0 km/h (0 Bft) 96,26 %
18.08.2018 05:00 13,1 C 12,0 C 12,1 C 90 % 1019,7 hPa 0,0 l/m 0,00 h 0,00 h 0 W/m 0,2 km/h (0 Bft) 99,53 %
18.08.2018 06:00 12,6 C 11,7 C 11,7 C 91 % 1019,9 hPa 0,0 l/m 0,00 h 0,00 h 11 W/m 0,1 km/h (0 Bft) 96,95 %
18.08.2018 07:00 12,3 C 12,4 C 12,1 C 92 % 1020,2 hPa 0,0 l/m 0,00 h 0,00 h 32 W/m 0,2 km/h (0 Bft) 96,17 %
18.08.2018 08:00 13,4 C 14,7 C 14,0 C 94 % 1020,4 hPa 0,0 l/m 0,00 h 0,00 h 53 W/m 1,9 km/h (1 Bft) 98,65 %
18.08.2018 09:00 15,6 C 19,6 C 16,2 C 88 % 1020,6 hPa 0,0 l/m 0,90 h 0,00 h 332 W/m 4,4 km/h (1 Bft) 97,36 %
18.08.2018 10:00 19,1 C 22,3 C 17,6 C 73 % 1020,8 hPa 0,0 l/m 1,00 h 0,00 h 488 W/m 6,0 km/h (2 Bft) 97,28 %
18.08.2018 11:00 22,0 C 28,6 C 18,9 C 64 % 1020,8 hPa 0,0 l/m 1,00 h 0,00 h 597 W/m 6,4 km/h (2 Bft) 99,24 %
18.08.2018 12:00 23,6 C 27,7 C 20,2 C 60 % 1020,7 hPa 0,0 l/m 0,30 h 0,00 h 331 W/m 7,9 km/h (2 Bft) 96,83 %
18.08.2018 13:00 24,1 C 25,3 C 21,4 C 58 % 1020,5 hPa 0,0 l/m 0,93 h 0,00 h 667 W/m 7,4 km/h (2 Bft) 95,99 %
18.08.2018 14:00 24,1 C 23,9 C 21,8 C 57 % 1020,0 hPa 0,0 l/m 1,00 h 0,00 h 767 W/m 8,0 km/h (2 Bft) 98,32 %
18.08.2018 15:00 24,3 C 24,4 C 22,2 C 56 % 1019,5 hPa 0,0 l/m 1,00 h 0,00 h 729 W/m 7,2 km/h (2 Bft) 98,70 %
18.08.2018 16:00 24,8 C 26,2 C 22,8 C 53 % 1019,3 hPa 0,0 l/m 1,00 h 0,00 h 650 W/m 7,7 km/h (2 Bft) 95,87 %
18.08.2018 17:00 24,7 C 25,1 C 22,6 C 54 % 1019,1 hPa 0,0 l/m 1,00 h 0,00 h 467 W/m 9,1 km/h (2 Bft) 97,53 %
18.08.2018 18:00 24,3 C 23,7 C 22,1 C 58 % 1019,0 hPa 0,0 l/m 0,73 h 0,00 h 257 W/m 8,1 km/h (2 Bft) 99,51 %
18.08.2018 19:00 23,2 C 22,0 C 21,1 C 64 % 1019,2 hPa 0,0 l/m 0,00 h 0,00 h 57 W/m 9,7 km/h (2 Bft) 95,49 %
18.08.2018 20:00 21,7 C 20,1 C 19,8 C 68 % 1019,5 hPa 0,0 l/m 0,00 h 0,00 h 19 W/m 6,9 km/h (2 Bft) 97,66 %
18.08.2018 21:00 20,5 C 18,6 C 18,5 C 73 % 1020,0 hPa 0,0 l/m 0,00 h 0,00 h 0 W/m 3,3 km/h (1 Bft) 99,59 %
18.08.2018 22:00 19,3 C 17,5 C 17,1 C 77 % 1020,1 hPa 0,0 l/m 0,00 h 0,00 h 0 W/m 0,4 km/h (0 Bft) 96,18 %
18.08.2018 23:00 18,4 C 17,0 C 16,4 C 81 % 1020,3 hPa 0,0 l/m 0,00 h 0,00 h 0 W/m 0,7 km/h (0 Bft) 97,07 %
19.08.2018 00:00 17,4 C 16,1 C 15,9 C 85 % 1020,7 hPa 0,0 l/m 0,00 h 0,00 h 0 W/m 0,8 km/h (0 Bft) 98,42 %
19.08.2018 01:00 16,9 C 16,1 C 15,8 C 86 % 1020,6 hPa 0,0 l/m 0,00 h 0,00 h 0 W/m 0,8 km/h (0 Bft) 97,35 %
19.08.2018 02:00 16,9 C 16,4 C 16,2 C 86 % 1020,3 hPa 0,0 l/m 0,00 h 0,00 h 0 W/m 1,5 km/h (1 Bft) 98,91 %
19.08.2018 03:00 16,8 C 15,7 C 15,7 C 86 % 1020,1 hPa 0,0 l/m 0,00 h 0,00 h 0 W/m 1,6 km/h (1 Bft) 95,81 %
19.08.2018 04:00 16,3 C 15,4 C 15,5 C 87 % 1019,9 hPa 0,0 l/m 0,00 h 0,00 h 0 W/m 2,1 km/h (1 Bft) 97,32 %
19.08.2018 05:00 15,9 C 15,0 C 15,0 C 88 % 1019,9 hPa 0,0 l/m 0,00 h 0,00 h 0 W/m 2,6 km/h (1 Bft) 99,46 %
19.08.2018 06:00 15,5 C 14,4 C 14,6 C 89 % 1019,8 hPa 0,0 l/m 0,00 h 0,00 h 11 W/m 2,7 km/h (1 Bft) 97,85 %
19.08.2018 07:00 15,3 C 14,9 C 14,8 C 90 % 1020,1 hPa 0,0 l/m 0,00 h 0,00 h 36 W/m 3,1 km/h (1 Bft) 95,62 %
19.08.2018 08:00 16,2 C 17,0 C 16,1 C 90 % 1019,9 hPa 0,0 l/m 0,00 h 0,00 h 124 W/m 4,7 km/h (1 Bft) 98,63 %
19.08.2018 09:00 17,8 C 20,0 C 17,3 C 85 % 1019,8 hPa 0,0 l/m 0,50 h 0,00 h 268 W/m 5,0 km/h (1 Bft) 97,48 %
19.08.2018 10:00 20,0 C 21,7 C 18,8 C 76 % 1019,8 hPa 0,0 l/m 0,67 h 0,00 h 337 W/m 8,1 km/h (2 Bft) 97,05 %
19.08.2018 11:00 20,5 C 21,1 C 19,1 C 73 % 1019,7 hPa 0,0 l/m 0,07 h 0,00 h 276 W/m 7,6 km/h (2 Bft) 99,42 %
19.08.2018 12:00 21,7 C 24,2 C 20,5 C 69 % 1019,2 hPa 0,0 l/m 0,50 h 0,00 h 368 W/m 9,0 km/h (2 Bft) 96,28 %
19.08.2018 13:00 23,2 C 24,5 C 21,6 C 66 % 1018,6 hPa 0,0 l/m 0,63 h 0,00 h 557 W/m 8,4 km/h (2 Bft) 97,24 %
19.08.2018 14:00 24,2 C 24,2 C 22,5 C 63 % 1018,2 hPa 0,0 l/m 1,00 h 0,00 h 745 W/m 9,6 km/h (2 Bft) 98,36 %
19.08.2018 15:00 24,9 C 25,2 C 23,2 C 62 % 1017,6 hPa 0,0 l/m 1,00 h 0,00 h 709 W/m 8,3 km/h (2 Bft) 97,56 %
19.08.2018 16:00 25,9 C 26,9 C 23,8 C 60 % 1016,9 hPa 0,0 l/m 1,00 h 0,00 h 627 W/m 8,1 km/h (2 Bft) 97,26 %
19.08.2018 17:00 26,3 C 26,7 C 24,1 C 59 % 1016,5 hPa 0,0 l/m 1,00 h 0,00 h 474 W/m 7,5 km/h (2 Bft) 96,79 %
19.08.2018 18:00 26,3 C 25,8 C 24,1 C 61 % 1016,2 hPa 0,0 l/m 0,80 h 0,00 h 270 W/m 6,8 km/h (2 Bft) 99,00 %
19.08.2018 19:00 25,6 C 24,5 C 23,2 C 63 % 1015,9 hPa 0,0 l/m 0,00 h 0,00 h 56 W/m 6,3 km/h (2 Bft) 96,86 %
19.08.2018 20:00 24,4 C 22,8 C 22,0 C 68 % 1016,0 hPa 0,0 l/m 0,13 h 0,00 h 21 W/m 3,7 km/h (1 Bft) 96,20 %
19.08.2018 21:00 23,1 C 21,4 C 21,0 C 72 % 1016,1 hPa 0,0 l/m 0,00 h 0,00 h 0 W/m 3,3 km/h (1 Bft) 99,45 %
19.08.2018 22:00 21,7 C 19,7 C 19,5 C 77 % 1016,3 hPa 0,0 l/m 0,00 h 0,00 h 0 W/m 2,0 km/h (1 Bft) 96,86 %
19.08.2018 23:00 20,5 C 19,0 C 18,4 C 81 % 1016,4 hPa 0,0 l/m 0,00 h 0,00 h 0 W/m 0,0 km/h (0 Bft) 97,37 %
Min-Datum _ 18.08.18 18.08.18 18.08.18 18.08.18 13.08.18 - - - - 13.08.18 13.08.18
_ Min-Zeit 07:14 06:44 05:46 16:58 14:04 - - - - 06:20 13:48
Minimum _ 12,2 C 11,1 C 11,7 C 51 % 1003,5 hPa - - - - 0,0 km/h (0 Bft) 82,98 %
Max-Datum _ 16.08.18 16.08.18 16.08.18 17.08.18 18.08.18 17.08.18 13.08.18 13.08.18 14.08.18 14.08.18 13.08.18
_ Max-Zeit 16:56 11:18 16:52 12:14 10:36 08:10 18:08 05:55 14:00 11:52 01:38
Maximum _ 27,4 C 32,8 C 25,6 C 98 % 1020,9 hPa 4,4 l/m 0,07 h 0,08 h 985 W/m 22,5 km/h
N-NW (4 Bft)
100,00 %
Durchschnitt _ 19,7 C 19,5 C 18,3 C 79 % 1014,4 hPa #22,0 l/m #37:34 h #7:59 h 270 W/m 5,2 km/h (1 Bft) 97,51 %
© 2018 W. Hausmann